Time;durP1;ratioP1;P1;durP2;ratioP2;P2;SDS_P1;SDS_P2;PMS_P1;PMS_P2;Temp;Humidity;BMP_temperature;BMP_pressure;BME280_temperature;BME280_humidity;BME280_pressure;Samples;Min_cycle;Max_cycle;Signal;HPM_P1;HPM_P2
2021/11/08 00:01:21;;;;;;;;;;;7.00;99.90;;;;;;5056003;28;19936;-75
2021/11/08 00:03:53;;;;;;;;;;;6.90;99.90;;;;;;5056964;28;20353;-75
2021/11/08 00:06:20;;;;;;;;;;;7.00;99.90;;;;;;5075437;28;19931;-75
2021/11/08 00:08:46;;;;;;;;;;;6.90;99.90;;;;;;5062457;28;20406;-75
2021/11/08 00:11:14;;;;;;;;;;;6.90;99.90;;;;;;5063500;28;19968;-75
2021/11/08 00:13:41;;;;;;;;;;;6.90;99.90;;;;;;5055954;28;19935;-75
2021/11/08 00:16:15;;;;;;;;;;;6.90;99.90;;;;;;5055985;28;19939;-75
2021/11/08 00:18:49;;;;;;;;;;;6.90;99.90;;;;;;5055816;28;19960;-75
2021/11/08 00:21:18;;;;;;;;;;;6.90;99.90;;;;;;5073384;28;19924;-75
2021/11/08 00:23:45;;;;;;;;;;;6.90;99.90;;;;;;5075745;28;20011;-75
2021/11/08 00:26:12;;;;;;;;;;;;;;;;;;5059934;28;19935;-75
2021/11/08 00:28:40;;;;;;;;;;;6.80;99.90;;;;;;5075319;28;19968;-75
2021/11/08 00:31:08;;;;;;;;;;;6.70;99.90;;;;;;5067439;28;19956;-75
2021/11/08 00:33:35;;;;;;;;;;;6.60;99.90;;;;;;5071086;28;19929;-75
2021/11/08 00:36:04;;;;;;;;;;;6.60;99.90;;;;;;5075568;28;20357;-75
2021/11/08 00:38:31;;;;;;;;;;;6.60;99.90;;;;;;5075429;28;19933;-75
2021/11/08 00:40:59;;;;;;;;;;;6.50;99.90;;;;;;5075300;28;19978;-75
2021/11/08 00:43:26;;;;;;;;;;;6.50;99.90;;;;;;5075627;28;19924;-75
2021/11/08 00:45:53;;;;;;;;;;;6.50;99.90;;;;;;5075506;28;20357;-75
2021/11/08 00:48:22;;;;;;;;;;;;;;;;;;5075720;28;19924;-75
2021/11/08 00:50:49;;;;;;;;;;;6.50;99.90;;;;;;5075031;28;20337;-75
2021/11/08 00:53:18;;;;;;;;;;;6.50;99.90;;;;;;5075253;28;19932;-75
2021/11/08 00:55:46;;;;;;;;;;;6.50;99.90;;;;;;5075184;28;20388;-75
2021/11/08 00:58:17;;;;;;;;;;;6.50;99.90;;;;;;5075040;28;19978;-75
2021/11/08 01:00:44;;;;;;;;;;;6.60;99.90;;;;;;5074598;28;19925;-75
2021/11/08 01:03:14;;;;;;;;;;;6.50;99.90;;;;;;5075053;28;19975;-75
2021/11/08 01:05:41;;;;;;;;;;;6.50;99.90;;;;;;5075386;28;19924;-75
2021/11/08 01:08:08;;;;;;;;;;;6.50;99.90;;;;;;5074996;28;19939;-75
2021/11/08 01:10:36;;;;;;;;;;;6.40;99.90;;;;;;5075104;28;19928;-75
2021/11/08 01:13:03;;;;;;;;;;;6.50;99.90;;;;;;5075309;28;19950;-75
2021/11/08 01:15:30;;;;;;;;;;;6.50;99.90;;;;;;5075024;28;19932;-75
2021/11/08 01:17:56;;;;;;;;;;;6.60;99.90;;;;;;5075220;28;19924;-75
2021/11/08 01:20:30;;;;;;;;;;;6.60;99.90;;;;;;5075095;28;20413;-75
2021/11/08 01:22:57;;;;;;;;;;;6.60;99.90;;;;;;5074767;28;19946;-75
2021/11/08 01:25:24;;;;;;;;;;;6.50;99.90;;;;;;5074804;28;19943;-75
2021/11/08 01:27:55;;;;;;;;;;;6.50;99.90;;;;;;5074812;28;19960;-75
2021/11/08 01:30:24;;;;;;;;;;;6.50;99.90;;;;;;5075117;28;19932;-75
2021/11/08 01:32:56;;;;;;;;;;;6.40;99.90;;;;;;5074991;28;19925;-75
2021/11/08 01:35:30;;;;;;;;;;;6.40;99.90;;;;;;5075282;28;20410;-75
2021/11/08 01:38:03;;;;;;;;;;;6.40;99.90;;;;;;5074873;28;19925;-75
2021/11/08 01:40:30;;;;;;;;;;;6.40;99.90;;;;;;5074852;28;19932;-74
2021/11/08 01:42:58;;;;;;;;;;;6.30;99.90;;;;;;5074784;28;19925;-75
2021/11/08 01:45:25;;;;;;;;;;;6.20;99.90;;;;;;5074721;28;19925;-75
2021/11/08 01:47:52;;;;;;;;;;;6.20;99.90;;;;;;5075248;28;19935;-74
2021/11/08 01:50:19;;;;;;;;;;;6.20;99.90;;;;;;5074765;28;20359;-77
2021/11/08 01:52:46;;;;;;;;;;;6.20;99.90;;;;;;5076539;28;19924;-76
2021/11/08 01:55:13;;;;;;;;;;;6.20;99.90;;;;;;5076821;28;20344;-79
2021/11/08 01:57:40;;;;;;;;;;;6.30;99.90;;;;;;5076627;28;19925;-74
2021/11/08 02:00:09;;;;;;;;;;;6.20;99.90;;;;;;5075073;28;19924;-73
2021/11/08 02:02:35;;;;;;;;;;;6.30;99.90;;;;;;5075007;28;19924;-75
2021/11/08 02:05:02;;;;;;;;;;;6.20;99.90;;;;;;5075273;28;20355;-74
2021/11/08 02:07:29;;;;;;;;;;;6.20;99.90;;;;;;5075855;28;19924;-75
2021/11/08 02:09:56;;;;;;;;;;;6.20;99.90;;;;;;5075675;28;19924;-74
2021/11/08 02:12:23;;;;;;;;;;;6.20;99.90;;;;;;5076533;28;19934;-74
2021/11/08 02:14:50;;;;;;;;;;;6.20;99.90;;;;;;5080073;28;19934;-76
2021/11/08 02:17:18;;;;;;;;;;;6.00;99.90;;;;;;5082065;28;19934;-74
2021/11/08 02:19:46;;;;;;;;;;;6.10;99.90;;;;;;5078093;28;19935;-73
2021/11/08 02:22:15;;;;;;;;;;;6.00;99.90;;;;;;5078016;28;19990;-73
2021/11/08 02:24:42;;;;;;;;;;;6.00;99.90;;;;;;5078247;28;19968;-73
2021/11/08 02:27:09;;;;;;;;;;;6.00;99.90;;;;;;5075310;28;19978;-73
2021/11/08 02:29:36;;;;;;;;;;;6.00;99.90;;;;;;5077676;28;19956;-74
2021/11/08 02:32:04;;;;;;;;;;;6.00;99.90;;;;;;5077772;28;20241;-74
2021/11/08 02:34:32;;;;;;;;;;;6.10;99.90;;;;;;5077863;28;19925;-74
2021/11/08 02:36:59;;;;;;;;;;;6.10;99.90;;;;;;5077771;28;19929;-74
2021/11/08 02:39:32;;;;;;;;;;;6.10;99.90;;;;;;5077928;28;19925;-74
2021/11/08 02:41:59;;;;;;;;;;;6.00;99.90;;;;;;5077968;28;20438;-73
2021/11/08 02:44:27;;;;;;;;;;;6.00;99.90;;;;;;5077727;28;19924;-73
2021/11/08 02:46:56;;;;;;;;;;;6.00;99.90;;;;;;5077734;28;19928;-74
2021/11/08 02:49:26;;;;;;;;;;;6.00;99.90;;;;;;5077821;28;19932;-75
2021/11/08 02:52:00;;;;;;;;;;;6.00;99.90;;;;;;5077775;28;19925;-76
2021/11/08 02:54:32;;;;;;;;;;;6.00;99.90;;;;;;5077517;28;19925;-76
2021/11/08 02:56:59;;;;;;;;;;;6.00;99.90;;;;;;5077419;28;19972;-75
2021/11/08 02:59:28;;;;;;;;;;;6.10;99.90;;;;;;5077609;28;19989;-75
2021/11/08 03:01:56;;;;;;;;;;;6.10;99.90;;;;;;5077624;28;19924;-75
2021/11/08 03:04:27;;;;;;;;;;;6.10;99.90;;;;;;5077145;28;20077;-75
2021/11/08 03:06:54;;;;;;;;;;;6.10;99.90;;;;;;5077310;28;19968;-73
2021/11/08 03:09:24;;;;;;;;;;;6.20;99.90;;;;;;5078614;28;19937;-76
2021/11/08 03:11:53;;;;;;;;;;;6.20;99.90;;;;;;5077261;28;19924;-72
2021/11/08 03:14:24;;;;;;;;;;;6.30;99.90;;;;;;5077146;28;20037;-71
2021/11/08 03:16:54;;;;;;;;;;;6.30;99.90;;;;;;5077744;28;19931;-73
2021/11/08 03:19:24;;;;;;;;;;;6.30;99.90;;;;;;5077041;28;19931;-73
2021/11/08 03:21:53;;;;;;;;;;;6.30;99.90;;;;;;5076979;28;19936;-73
2021/11/08 03:24:24;;;;;;;;;;;6.30;99.90;;;;;;5076608;28;19935;-73
2021/11/08 03:26:55;;;;;;;;;;;6.40;99.90;;;;;;5076877;28;19931;-74
2021/11/08 03:29:22;;;;;;;;;;;6.40;99.90;;;;;;5077190;28;19931;-73
2021/11/08 03:31:50;;;;;;;;;;;6.40;99.90;;;;;;5076523;28;19931;-73
2021/11/08 03:34:17;;;;;;;;;;;6.40;99.90;;;;;;5076726;28;20375;-73
2021/11/08 03:36:44;;;;;;;;;;;6.40;99.90;;;;;;5076298;28;19924;-73
2021/11/08 03:39:13;;;;;;;;;;;6.40;99.90;;;;;;5076416;28;19990;-73
2021/11/08 03:41:41;;;;;;;;;;;6.40;99.90;;;;;;5076628;28;19932;-73
2021/11/08 03:44:09;;;;;;;;;;;6.40;99.90;;;;;;5076463;28;19972;-73
2021/11/08 03:46:36;;;;;;;;;;;6.40;99.90;;;;;;5076555;28;19924;-73
2021/11/08 03:49:03;;;;;;;;;;;6.30;99.90;;;;;;5076973;28;19924;-73
2021/11/08 03:51:30;;;;;;;;;;;6.30;99.90;;;;;;5076460;28;20272;-73
2021/11/08 03:53:57;;;;;;;;;;;6.30;99.90;;;;;;5076672;28;19928;-73
2021/11/08 03:56:24;;;;;;;;;;;6.30;99.90;;;;;;5076189;28;19928;-73
2021/11/08 03:58:51;;;;;;;;;;;6.20;99.90;;;;;;5076232;28;19980;-73
2021/11/08 04:01:19;;;;;;;;;;;6.20;99.90;;;;;;5076277;28;20353;-73
2021/11/08 04:03:46;;;;;;;;;;;6.20;99.90;;;;;;5076141;28;19924;-73
2021/11/08 04:06:13;;;;;;;;;;;6.20;99.90;;;;;;5076418;28;19925;-74
2021/11/08 04:08:40;;;;;;;;;;;6.10;99.90;;;;;;5076278;28;19924;-73
2021/11/08 04:11:07;;;;;;;;;;;6.10;99.90;;;;;;5076167;28;19924;-73
2021/11/08 04:13:37;;;;;;;;;;;6.00;99.90;;;;;;5076021;28;19924;-73
2021/11/08 04:16:06;;;;;;;;;;;6.00;99.90;;;;;;5075886;28;20379;-73
2021/11/08 04:18:35;;;;;;;;;;;6.00;99.90;;;;;;5076608;28;19957;-73
2021/11/08 04:21:02;;;;;;;;;;;6.00;99.90;;;;;;5075794;28;19924;-73
2021/11/08 04:23:28;;;;;;;;;;;6.00;99.90;;;;;;5075888;28;20342;-73
2021/11/08 04:25:56;;;;;;;;;;;6.00;99.90;;;;;;5075941;28;19924;-73
2021/11/08 04:28:24;;;;;;;;;;;6.00;99.90;;;;;;5075506;28;20377;-74
2021/11/08 04:30:51;;;;;;;;;;;6.00;99.90;;;;;;5075716;28;19975;-73
2021/11/08 04:33:23;;;;;;;;;;;6.10;99.90;;;;;;5075719;28;20023;-73
2021/11/08 04:36:05;;;;;;;;;;;6.10;99.90;;;;;;5074984;28;20359;-73
2021/11/08 04:38:44;;;;;;;;;;;6.10;99.90;;;;;;5075537;28;20031;-73
2021/11/08 04:41:27;;;;;;;;;;;6.20;99.90;;;;;;5074764;28;19938;-73
2021/11/08 04:44:12;;;;;;;;;;;6.10;99.90;;;;;;5075400;28;19928;-73
2021/11/08 04:47:13;;;;;;;;;;;6.20;99.90;;;;;;5075314;28;19958;-73
2021/11/08 04:52:38;;;;;;;;;;;6.20;99.90;;;;;;5074791;28;19998;-73
2021/11/08 04:55:10;;;;;;;;;;;6.20;99.90;;;;;;5075588;28;19972;-73
2021/11/08 05:28:29;;;;;;;;;;;6.60;99.90;;;;;;4971143;28;20013;-75
2021/11/08 05:30:56;;;;;;;;;;;6.60;99.90;;;;;;4995101;28;19925;-75
2021/11/08 05:33:23;;;;;;;;;;;6.60;99.90;;;;;;4994403;28;20281;-73
2021/11/08 05:35:51;;;;;;;;;;;6.60;99.90;;;;;;4994110;28;19926;-72
2021/11/08 05:38:17;;;;;;;;;;;6.60;99.90;;;;;;4993968;28;20256;-72
2021/11/08 05:40:46;;;;;;;;;;;6.60;99.90;;;;;;4993892;28;20342;-72
2021/11/08 05:43:12;;;;;;;;;;;6.60;99.90;;;;;;5010171;28;19936;-73
2021/11/08 05:45:41;;;;;;;;;;;6.70;99.90;;;;;;5014244;28;20028;-73
2021/11/08 05:48:08;;;;;;;;;;;6.70;99.90;;;;;;5017485;28;19933;-73
2021/11/08 05:50:34;;;;;;;;;;;6.80;99.90;;;;;;5017397;28;19930;-73
2021/11/08 05:53:01;;;;;;;;;;;6.80;99.90;;;;;;5017352;28;20385;-73
2021/11/08 05:55:34;;;;;;;;;;;6.80;99.90;;;;;;5017364;28;20239;-72
2021/11/08 05:58:12;;;;;;;;;;;6.80;99.90;;;;;;5017317;28;19925;-72
2021/11/08 06:50:40;;;;;;;;;;;7.00;99.90;;;;;;4984583;28;19926;-73
2021/11/08 06:53:10;;;;;;;;;;;7.00;99.90;;;;;;5016233;28;19925;-73
2021/11/08 06:55:37;;;;;;;;;;;7.00;99.90;;;;;;5016376;28;20329;-73
2021/11/08 06:58:11;;;;;;;;;;;7.00;99.90;;;;;;5015838;28;19952;-73
2021/11/08 07:00:38;;;;;;;;;;;7.00;99.90;;;;;;5016234;28;19926;-72
2021/11/08 07:03:06;;;;;;;;;;;7.00;99.90;;;;;;5052491;28;19925;-73
2021/11/08 07:05:33;;;;;;;;;;;7.10;99.90;;;;;;5057312;28;19925;-73
2021/11/08 07:07:59;;;;;;;;;;;7.10;99.90;;;;;;5057316;28;20019;-73
2021/11/08 07:10:26;;;;;;;;;;;7.10;99.90;;;;;;5057263;28;19931;-73
2021/11/08 07:12:53;;;;;;;;;;;7.10;99.90;;;;;;5057382;28;19936;-72
2021/11/08 07:15:20;;;;;;;;;;;7.10;99.90;;;;;;5057385;28;19951;-73
2021/11/08 07:17:47;;;;;;;;;;;7.10;99.90;;;;;;5057188;28;19925;-73
2021/11/08 07:20:15;;;;;;;;;;;7.10;99.90;;;;;;5056635;28;20263;-73
2021/11/08 07:22:42;;;;;;;;;;;7.10;99.90;;;;;;5056852;28;19935;-73
2021/11/08 07:25:09;;;;;;;;;;;7.10;99.90;;;;;;5057249;28;19925;-73
2021/11/08 07:27:36;;;;;;;;;;;7.10;99.90;;;;;;5068742;28;19924;-73
2021/11/08 07:30:03;;;;;;;;;;;7.10;99.90;;;;;;5077324;28;19925;-73
2021/11/08 07:32:30;;;;;;;;;;;7.10;99.90;;;;;;5077096;28;19929;-73
2021/11/08 07:34:58;;;;;;;;;;;7.10;99.90;;;;;;5076814;28;20361;-73
2021/11/08 07:37:26;;;;;;;;;;;7.10;99.90;;;;;;5077141;28;19955;-73
2021/11/08 07:39:53;;;;;;;;;;;7.10;99.90;;;;;;5076909;28;19925;-73
2021/11/08 07:42:20;;;;;;;;;;;7.10;99.90;;;;;;5076687;28;19939;-73
2021/11/08 07:44:47;;;;;;;;;;;7.10;99.90;;;;;;5076504;28;19925;-73
2021/11/08 07:47:14;;;;;;;;;;;7.10;99.90;;;;;;5076739;28;19931;-72
2021/11/08 07:49:40;;;;;;;;;;;7.10;99.90;;;;;;5076805;28;19935;-73
2021/11/08 07:52:08;;;;;;;;;;;7.10;99.90;;;;;;5076632;28;19931;-73
2021/11/08 07:54:37;;;;;;;;;;;7.20;99.90;;;;;;5076614;28;19994;-73
2021/11/08 07:57:04;;;;;;;;;;;7.20;99.90;;;;;;5076378;28;19942;-73
2021/11/08 07:59:30;;;;;;;;;;;7.20;99.90;;;;;;5076818;28;19928;-73
2021/11/08 08:01:57;;;;;;;;;;;7.20;99.90;;;;;;5076500;28;19924;-73
2021/11/08 08:04:24;;;;;;;;;;;7.20;99.90;;;;;;5076129;28;20349;-73
2021/11/08 08:06:51;;;;;;;;;;;7.20;99.90;;;;;;5076089;28;19928;-73
2021/11/08 08:09:18;;;;;;;;;;;7.20;99.90;;;;;;5075405;28;19924;-73
2021/11/08 08:11:46;;;;;;;;;;;7.30;99.90;;;;;;5076465;28;19931;-73
2021/11/08 08:14:13;;;;;;;;;;;7.30;99.90;;;;;;5076195;28;19925;-73
2021/11/08 08:16:40;;;;;;;;;;;7.30;99.90;;;;;;5076033;28;20328;-73
2021/11/08 08:19:07;;;;;;;;;;;7.30;99.90;;;;;;5076291;28;19924;-73
2021/11/08 08:21:34;;;;;;;;;;;7.40;99.90;;;;;;5076181;28;19925;-73
2021/11/08 08:24:01;;;;;;;;;;;7.40;99.90;;;;;;5075781;28;19935;-73
2021/11/08 08:26:32;;;;;;;;;;;7.40;99.90;;;;;;5075536;28;19924;-73
2021/11/08 08:29:03;;;;;;;;;;;7.40;99.90;;;;;;5075767;28;19924;-73
2021/11/08 08:31:30;;;;;;;;;;;7.40;99.90;;;;;;5075973;28;19925;-73
2021/11/08 08:33:57;;;;;;;;;;;7.40;99.90;;;;;;5075688;28;19925;-73
2021/11/08 08:36:24;;;;;;;;;;;7.40;99.90;;;;;;5075785;28;19939;-73
2021/11/08 08:38:51;;;;;;;;;;;7.50;99.90;;;;;;5075497;28;20259;-73
2021/11/08 08:41:18;;;;;;;;;;;7.50;99.90;;;;;;5075646;28;19925;-73
2021/11/08 08:43:44;;;;;;;;;;;7.50;99.90;;;;;;5075637;28;19931;-73
2021/11/08 08:46:13;;;;;;;;;;;7.60;99.90;;;;;;5075305;28;20395;-73
2021/11/08 08:48:40;;;;;;;;;;;7.60;99.90;;;;;;5075325;28;19939;-73
2021/11/08 08:51:08;;;;;;;;;;;7.70;99.90;;;;;;5075606;28;19924;-73
2021/11/08 08:53:34;;;;;;;;;;;7.80;99.90;;;;;;5075674;28;20323;-73
2021/11/08 08:56:01;;;;;;;;;;;7.80;99.90;;;;;;5075547;28;20288;-73
2021/11/08 08:58:30;;;;;;;;;;;7.90;99.90;;;;;;5075296;28;19935;-73
2021/11/08 09:00:57;;;;;;;;;;;7.90;99.90;;;;;;5075211;28;19936;-73
2021/11/08 09:03:25;;;;;;;;;;;8.00;99.90;;;;;;5075138;28;19928;-73
2021/11/08 09:05:52;;;;;;;;;;;8.00;99.90;;;;;;5075330;28;19924;-73
2021/11/08 09:08:19;;;;;;;;;;;8.00;99.90;;;;;;5075382;28;19925;-73
2021/11/08 09:10:45;;;;;;;;;;;8.00;99.90;;;;;;5075519;28;20268;-73
2021/11/08 09:13:12;;;;;;;;;;;8.10;99.90;;;;;;5075293;28;19943;-73
2021/11/08 09:15:39;;;;;;;;;;;8.10;99.90;;;;;;5075127;28;19924;-73
2021/11/08 09:18:06;;;;;;;;;;;8.10;99.90;;;;;;5075498;28;20252;-73
2021/11/08 09:20:35;;;;;;;;;;;8.20;99.90;;;;;;5074799;28;20378;-73
2021/11/08 09:23:02;;;;;;;;;;;8.20;99.90;;;;;;5075157;28;20340;-73
2021/11/08 09:25:29;;;;;;;;;;;8.30;99.90;;;;;;5075009;28;19935;-73
2021/11/08 09:27:56;;;;;;;;;;;8.30;99.90;;;;;;5074999;28;19925;-73
2021/11/08 09:30:24;;;;;;;;;;;8.30;99.90;;;;;;5074907;28;19973;-73
2021/11/08 09:32:51;;;;;;;;;;;8.40;99.90;;;;;;5075285;28;19939;-73
2021/11/08 09:35:18;;;;;;;;;;;8.40;99.90;;;;;;5075008;28;20329;-73
2021/11/08 09:37:48;;;;;;;;;;;8.50;99.90;;;;;;5075305;28;19924;-73
2021/11/08 09:40:15;;;;;;;;;;;8.60;99.90;;;;;;5075130;28;19925;-73
2021/11/08 09:42:42;;;;;;;;;;;8.60;99.90;;;;;;5074815;28;19924;-73
2021/11/08 09:45:09;;;;;;;;;;;8.60;99.90;;;;;;5074720;28;20353;-73
2021/11/08 09:47:36;;;;;;;;;;;8.60;99.90;;;;;;5074841;28;19924;-73
2021/11/08 09:50:04;;;;;;;;;;;8.70;99.90;;;;;;5074975;28;19924;-73
2021/11/08 09:52:31;;;;;;;;;;;8.70;99.90;;;;;;5074771;28;19982;-73
2021/11/08 09:54:59;;;;;;;;;;;8.80;99.90;;;;;;5074840;28;20337;-73
2021/11/08 09:57:26;;;;;;;;;;;8.80;99.90;;;;;;5074650;28;19924;-73
2021/11/08 09:59:53;;;;;;;;;;;8.90;99.90;;;;;;5074798;28;19940;-72
2021/11/08 10:02:20;;;;;;;;;;;8.90;99.90;;;;;;5074889;28;19924;-73
2021/11/08 10:04:48;;;;;;;;;;;8.90;99.90;;;;;;5074793;28;19924;-73
2021/11/08 10:07:15;;;;;;;;;;;8.90;99.90;;;;;;5074715;28;19989;-73
2021/11/08 10:09:42;;;;;;;;;;;8.90;99.90;;;;;;5074585;28;19928;-73
2021/11/08 10:12:11;;;;;;;;;;;8.90;99.90;;;;;;5074438;28;19947;-73
2021/11/08 10:14:38;;;;;;;;;;;8.90;99.90;;;;;;5074578;28;19931;-73
2021/11/08 10:17:05;;;;;;;;;;;8.90;99.90;;;;;;5074607;28;19924;-73
2021/11/08 10:19:34;;;;;;;;;;;8.90;99.90;;;;;;5074482;28;19935;-73
2021/11/08 10:22:01;;;;;;;;;;;8.90;99.90;;;;;;5074873;28;19955;-73
2021/11/08 10:24:29;;;;;;;;;;;8.90;99.90;;;;;;5074327;28;19924;-73
2021/11/08 10:26:57;;;;;;;;;;;8.90;99.90;;;;;;5074333;28;19924;-73
2021/11/08 10:29:25;;;;;;;;;;;8.90;99.90;;;;;;5074586;28;19939;-72
2021/11/08 10:31:53;;;;;;;;;;;8.90;99.90;;;;;;5074529;28;19935;-72
2021/11/08 10:34:20;;;;;;;;;;;8.90;99.90;;;;;;5077710;28;19925;-73
2021/11/08 10:36:47;;;;;;;;;;;9.00;99.90;;;;;;5078001;28;19924;-72
2021/11/08 10:39:14;;;;;;;;;;;9.00;99.90;;;;;;5077858;28;19924;-73
2021/11/08 10:41:41;;;;;;;;;;;9.10;99.90;;;;;;5077757;28;19925;-73
2021/11/08 10:44:09;;;;;;;;;;;9.10;99.90;;;;;;5077922;28;19925;-73
2021/11/08 10:46:39;;;;;;;;;;;9.10;99.90;;;;;;5077875;28;19924;-72
2021/11/08 10:49:06;;;;;;;;;;;9.10;99.90;;;;;;5077717;28;19965;-73
2021/11/08 10:51:33;;;;;;;;;;;9.20;99.90;;;;;;5077755;28;19974;-72
2021/11/08 10:54:01;;;;;;;;;;;9.20;99.90;;;;;;5077581;28;19934;-73
2021/11/08 10:56:28;;;;;;;;;;;9.30;99.90;;;;;;5077866;28;19924;-72
2021/11/08 10:58:55;;;;;;;;;;;9.30;99.90;;;;;;5077781;28;20257;-73
2021/11/08 11:01:23;;;;;;;;;;;9.40;99.90;;;;;;5077492;28;20352;-73
2021/11/08 11:03:52;;;;;;;;;;;9.50;99.90;;;;;;5077691;28;20341;-73
2021/11/08 11:06:19;;;;;;;;;;;9.60;99.90;;;;;;5077391;28;19947;-73
2021/11/08 11:08:50;;;;;;;;;;;9.70;99.90;;;;;;5077321;28;19924;-73
2021/11/08 11:11:17;;;;;;;;;;;9.80;99.90;;;;;;5077659;28;20264;-73
2021/11/08 11:13:49;;;;;;;;;;;9.90;99.90;;;;;;5077280;28;20360;-73
2021/11/08 11:16:16;;;;;;;;;;;9.90;99.90;;;;;;5077189;28;19924;-73
2021/11/08 11:18:42;;;;;;;;;;;10.00;99.90;;;;;;5077480;28;19928;-73
2021/11/08 11:21:14;;;;;;;;;;;10.10;99.90;;;;;;5077360;28;19925;-73
2021/11/08 11:23:48;;;;;;;;;;;10.10;99.90;;;;;;5077284;28;19936;-73
2021/11/08 11:26:14;;;;;;;;;;;10.20;99.90;;;;;;5077014;28;19943;-73
2021/11/08 11:28:43;;;;;;;;;;;10.30;99.90;;;;;;5077477;28;20023;-73
2021/11/08 11:31:12;;;;;;;;;;;10.30;99.90;;;;;;5076823;28;20256;-73
2021/11/08 11:33:38;;;;;;;;;;;10.40;99.90;;;;;;5076799;28;20348;-73
2021/11/08 11:36:06;;;;;;;;;;;10.40;99.90;;;;;;5076791;28;20341;-73
2021/11/08 11:38:36;;;;;;;;;;;10.40;99.90;;;;;;5077064;28;19924;-73
2021/11/08 11:41:04;;;;;;;;;;;10.50;99.90;;;;;;5076840;28;19934;-73
2021/11/08 11:43:32;;;;;;;;;;;10.50;99.90;;;;;;5076817;28;19928;-73
2021/11/08 11:45:59;;;;;;;;;;;10.50;99.90;;;;;;5076686;28;20367;-73
2021/11/08 11:48:26;;;;;;;;;;;10.60;99.90;;;;;;5076841;28;19925;-73
2021/11/08 11:50:53;;;;;;;;;;;10.60;99.90;;;;;;5076588;28;19982;-73
2021/11/08 11:53:19;;;;;;;;;;;10.70;99.90;;;;;;5076447;28;19931;-73
2021/11/08 11:55:48;;;;;;;;;;;10.70;99.90;;;;;;5076568;28;19932;-73
2021/11/08 11:58:16;;;;;;;;;;;10.70;99.90;;;;;;5076400;28;19932;-73
2021/11/08 12:00:43;;;;;;;;;;;10.70;99.90;;;;;;5076453;28;19943;-73
2021/11/08 12:03:10;;;;;;;;;;;10.70;99.90;;;;;;5076328;28;19929;-73
2021/11/08 12:05:39;;;;;;;;;;;10.70;99.90;;;;;;5076118;28;19935;-73
2021/11/08 12:08:07;;;;;;;;;;;10.70;99.90;;;;;;5074432;28;19966;-73
2021/11/08 12:10:34;;;;;;;;;;;10.80;99.90;;;;;;5073114;28;20011;-73
2021/11/08 12:13:03;;;;;;;;;;;10.70;99.90;;;;;;5076192;28;19925;-73
2021/11/08 12:15:30;;;;;;;;;;;10.70;99.90;;;;;;5074647;28;20373;-73
2021/11/08 12:18:03;;;;;;;;;;;10.70;99.90;;;;;;5076321;28;19986;-73
2021/11/08 12:20:30;;;;;;;;;;;10.70;99.90;;;;;;5076128;28;19924;-73
2021/11/08 12:22:57;;;;;;;;;;;10.60;99.90;;;;;;5075840;28;19924;-73
2021/11/08 12:25:25;;;;;;;;;;;10.70;99.90;;;;;;5075519;28;19942;-73
2021/11/08 12:27:53;;;;;;;;;;;10.70;99.90;;;;;;5073637;28;20130;-73
2021/11/08 12:30:28;;;;;;;;;;;10.70;99.90;;;;;;5075415;28;20341;-73
2021/11/08 12:32:56;;;;;;;;;;;10.70;99.90;;;;;;5075980;28;19925;-73
2021/11/08 12:35:23;;;;;;;;;;;10.80;99.90;;;;;;5075624;28;19928;-73
2021/11/08 12:37:50;;;;;;;;;;;10.80;99.90;;;;;;5075551;28;19925;-73
2021/11/08 12:40:18;;;;;;;;;;;10.80;99.90;;;;;;5075650;28;19934;-73
2021/11/08 12:42:45;;;;;;;;;;;10.90;99.90;;;;;;5075490;28;19931;-73
2021/11/08 12:45:13;;;;;;;;;;;10.90;99.90;;;;;;5075230;28;19935;-73
2021/11/08 12:47:41;;;;;;;;;;;11.00;99.90;;;;;;5075731;28;19924;-73
2021/11/08 12:50:10;;;;;;;;;;;11.00;99.90;;;;;;5075437;28;20375;-73
2021/11/08 12:52:39;;;;;;;;;;;11.10;99.90;;;;;;5075308;28;19932;-73
2021/11/08 12:55:06;;;;;;;;;;;11.10;99.90;;;;;;5075053;28;19935;-73
2021/11/08 12:57:34;;;;;;;;;;;11.20;99.90;;;;;;5075056;28;19929;-73
2021/11/08 13:00:01;;;;;;;;;;;11.30;99.90;;;;;;5075270;28;19931;-73
2021/11/08 13:02:30;;;;;;;;;;;11.30;99.90;;;;;;5075569;28;20253;-73
2021/11/08 13:04:59;;;;;;;;;;;11.40;99.90;;;;;;5075307;28;19925;-73
2021/11/08 13:07:29;;;;;;;;;;;11.40;99.90;;;;;;5075293;28;19943;-73
2021/11/08 13:09:56;;;;;;;;;;;11.50;99.90;;;;;;5075281;28;19932;-73
2021/11/08 13:12:23;;;;;;;;;;;11.50;99.90;;;;;;5075076;28;19929;-73
2021/11/08 13:15:00;;;;;;;;;;;11.50;99.90;;;;;;5075181;28;20249;-73
2021/11/08 13:17:28;;;;;;;;;;;11.50;99.90;;;;;;5075281;28;20221;-72
2021/11/08 13:19:55;;;;;;;;;;;11.50;99.90;;;;;;5074931;28;20333;-73
2021/11/08 13:22:24;;;;;;;;;;;11.50;99.90;;;;;;5075007;28;19924;-72
2021/11/08 13:25:01;;;;;;;;;;;11.50;99.90;;;;;;5075056;28;19924;-73
2021/11/08 13:27:28;;;;;;;;;;;11.40;99.90;;;;;;5074775;28;19925;-73
2021/11/08 13:29:55;;;;;;;;;;;11.40;99.90;;;;;;5075334;28;19925;-73
2021/11/08 13:32:22;;;;;;;;;;;11.40;99.90;;;;;;5074834;28;19924;-73
2021/11/08 13:34:50;;;;;;;;;;;11.40;99.90;;;;;;5075083;28;19947;-73
2021/11/08 13:37:17;;;;;;;;;;;11.40;99.90;;;;;;5074841;28;20015;-73
2021/11/08 13:39:49;;;;;;;;;;;11.30;99.90;;;;;;5074852;28;19943;-73
2021/11/08 13:42:18;;;;;;;;;;;11.30;99.90;;;;;;5074991;28;19989;-73
2021/11/08 13:44:45;;;;;;;;;;;11.30;99.90;;;;;;5074767;28;19948;-73
2021/11/08 13:47:12;;;;;;;;;;;11.40;99.90;;;;;;5074650;28;19931;-73
2021/11/08 13:49:39;;;;;;;;;;;11.40;99.90;;;;;;5074623;28;19935;-72
2021/11/08 13:52:06;;;;;;;;;;;11.30;99.90;;;;;;5075156;28;19931;-73
2021/11/08 13:54:34;;;;;;;;;;;11.30;99.90;;;;;;5074630;28;20272;-73
2021/11/08 13:57:05;;;;;;;;;;;11.30;99.90;;;;;;5074770;28;20011;-73
2021/11/08 13:59:32;;;;;;;;;;;11.40;99.90;;;;;;5074887;28;19924;-73
2021/11/08 14:02:00;;;;;;;;;;;11.40;99.90;;;;;;5074615;28;19998;-73
2021/11/08 14:04:30;;;;;;;;;;;11.40;99.90;;;;;;5074509;28;19925;-73
2021/11/08 14:06:57;;;;;;;;;;;11.40;99.90;;;;;;5074644;28;19924;-73
2021/11/08 14:09:24;;;;;;;;;;;11.40;99.90;;;;;;5077203;28;19928;-73
2021/11/08 14:11:51;;;;;;;;;;;11.40;99.90;;;;;;5078241;28;19924;-73
2021/11/08 14:14:21;;;;;;;;;;;11.40;99.90;;;;;;5078203;28;19936;-73
2021/11/08 14:16:49;;;;;;;;;;;11.40;99.90;;;;;;5078243;28;19935;-73
2021/11/08 14:19:16;;;;;;;;;;;11.40;99.90;;;;;;5078311;28;20022;-73
2021/11/08 14:21:43;;;;;;;;;;;11.40;99.90;;;;;;5078148;28;20391;-72
2021/11/08 14:24:11;;;;;;;;;;;11.40;99.90;;;;;;5078141;28;19924;-73
2021/11/08 14:26:38;;;;;;;;;;;11.50;99.90;;;;;;5077967;28;19935;-73
2021/11/08 14:29:11;;;;;;;;;;;11.40;99.90;;;;;;5078115;28;20345;-73
2021/11/08 14:31:40;;;;;;;;;;;11.40;99.90;;;;;;5078056;28;20377;-73
2021/11/08 14:34:09;;;;;;;;;;;11.40;99.90;;;;;;5077896;28;19924;-73
2021/11/08 14:36:40;;;;;;;;;;;11.50;99.90;;;;;;5078079;28;20394;-73
2021/11/08 14:39:08;;;;;;;;;;;11.50;99.90;;;;;;5077968;28;19924;-73
2021/11/08 14:41:35;;;;;;;;;;;11.50;99.90;;;;;;5078002;28;20026;-73
2021/11/08 14:44:03;;;;;;;;;;;11.50;99.90;;;;;;5077989;28;19931;-73
2021/11/08 14:46:37;;;;;;;;;;;11.50;99.90;;;;;;5076769;28;19924;-73
2021/11/08 14:49:19;;;;;;;;;;;11.50;99.90;;;;;;5077723;28;20267;-73
2021/11/08 14:51:46;;;;;;;;;;;11.40;99.90;;;;;;5077818;28;20436;-73
2021/11/08 14:54:13;;;;;;;;;;;11.30;99.90;;;;;;5077618;28;19929;-73
2021/11/08 14:56:40;;;;;;;;;;;11.30;99.90;;;;;;5077500;28;19925;-73
2021/11/08 14:59:08;;;;;;;;;;;11.20;99.90;;;;;;5077604;28;19934;-73
2021/11/08 15:01:35;;;;;;;;;;;11.20;99.90;;;;;;5077534;28;19928;-73
2021/11/08 15:04:03;;;;;;;;;;;11.10;99.90;;;;;;5077486;28;19931;-73
2021/11/08 15:06:34;;;;;;;;;;;11.10;99.90;;;;;;5077558;28;19924;-73
2021/11/08 15:09:02;;;;;;;;;;;11.20;99.90;;;;;;5077615;28;19925;-73
2021/11/08 15:11:31;;;;;;;;;;;11.20;99.90;;;;;;5077655;28;20031;-73
2021/11/08 15:14:02;;;;;;;;;;;11.20;99.90;;;;;;5077180;28;19925;-73
2021/11/08 15:16:29;;;;;;;;;;;11.20;99.90;;;;;;5077256;28;20254;-73
2021/11/08 15:19:01;;;;;;;;;;;11.20;99.90;;;;;;5076818;28;19925;-73
2021/11/08 15:21:34;;;;;;;;;;;11.20;99.90;;;;;;5077387;28;19925;-73
2021/11/08 15:24:06;;;;;;;;;;;11.20;99.90;;;;;;5077594;28;20387;-73
2021/11/08 15:26:32;;;;;;;;;;;11.20;99.90;;;;;;5077102;28;19978;-73
2021/11/08 15:29:01;;;;;;;;;;;11.20;99.90;;;;;;5077249;28;19924;-73
2021/11/08 15:31:31;;;;;;;;;;;11.20;99.90;;;;;;5076956;28;20015;-73
2021/11/08 15:34:03;;;;;;;;;;;11.20;99.90;;;;;;5077066;28;19997;-73
2021/11/08 15:36:30;;;;;;;;;;;11.20;99.90;;;;;;5077004;28;19925;-73
2021/11/08 15:38:59;;;;;;;;;;;11.20;99.90;;;;;;5076768;28;19924;-73
2021/11/08 15:41:27;;;;;;;;;;;11.20;99.90;;;;;;5077001;28;19925;-73
2021/11/08 15:43:53;;;;;;;;;;;11.20;99.90;;;;;;5076857;28;19934;-73
2021/11/08 15:46:20;;;;;;;;;;;11.20;99.90;;;;;;5076417;28;19935;-73
2021/11/08 15:48:47;;;;;;;;;;;11.20;99.90;;;;;;5076532;28;20360;-73
2021/11/08 15:51:14;;;;;;;;;;;11.20;99.90;;;;;;5076858;28;19928;-73
2021/11/08 15:53:41;;;;;;;;;;;11.20;99.90;;;;;;5076614;28;19932;-73
2021/11/08 15:56:09;;;;;;;;;;;11.20;99.90;;;;;;5076412;28;19924;-73